sensor_id;sensor_type;location;lat;lon;timestamp;temperature;humidity
17284;DHT22;8760;52.248;20.952;2022-10-20T00:00:50;4.60;99.90
17284;DHT22;8760;52.248;20.952;2022-10-20T00:03:17;4.60;99.90
17284;DHT22;8760;52.248;20.952;2022-10-20T00:05:44;4.50;99.90
17284;DHT22;8760;52.248;20.952;2022-10-20T00:08:11;4.50;99.90
17284;DHT22;8760;52.248;20.952;2022-10-20T00:10:39;4.40;99.90
17284;DHT22;8760;52.248;20.952;2022-10-20T00:13:06;4.40;99.90
17284;DHT22;8760;52.248;20.952;2022-10-20T00:15:33;4.40;99.90
17284;DHT22;8760;52.248;20.952;2022-10-20T00:18:00;4.30;99.90
17284;DHT22;8760;52.248;20.952;2022-10-20T00:20:27;4.30;99.90
17284;DHT22;8760;52.248;20.952;2022-10-20T00:22:54;4.30;99.90
17284;DHT22;8760;52.248;20.952;2022-10-20T00:25:21;4.40;99.90
17284;DHT22;8760;52.248;20.952;2022-10-20T00:27:49;4.30;99.90
17284;DHT22;8760;52.248;20.952;2022-10-20T00:30:16;4.30;99.90
17284;DHT22;8760;52.248;20.952;2022-10-20T00:32:46;4.30;99.90
17284;DHT22;8760;52.248;20.952;2022-10-20T00:35:13;4.30;99.90
17284;DHT22;8760;52.248;20.952;2022-10-20T00:37:40;4.30;99.90
17284;DHT22;8760;52.248;20.952;2022-10-20T00:40:07;4.40;99.90
17284;DHT22;8760;52.248;20.952;2022-10-20T00:42:34;4.30;99.90
17284;DHT22;8760;52.248;20.952;2022-10-20T00:45:12;4.30;99.90
17284;DHT22;8760;52.248;20.952;2022-10-20T00:47:43;4.40;99.90
17284;DHT22;8760;52.248;20.952;2022-10-20T00:50:14;4.30;99.90
17284;DHT22;8760;52.248;20.952;2022-10-20T00:52:42;4.30;99.90
17284;DHT22;8760;52.248;20.952;2022-10-20T00:55:11;4.30;99.90
17284;DHT22;8760;52.248;20.952;2022-10-20T00:57:40;4.30;99.90
17284;DHT22;8760;52.248;20.952;2022-10-20T01:00:10;4.30;99.90
17284;DHT22;8760;52.248;20.952;2022-10-20T01:02:37;4.20;99.90
17284;DHT22;8760;52.248;20.952;2022-10-20T01:05:05;4.20;99.90
17284;DHT22;8760;52.248;20.952;2022-10-20T01:07:33;4.20;99.90
17284;DHT22;8760;52.248;20.952;2022-10-20T01:10:00;4.20;99.90
17284;DHT22;8760;52.248;20.952;2022-10-20T01:12:32;4.10;99.90
17284;DHT22;8760;52.248;20.952;2022-10-20T01:15:11;4.10;99.90
17284;DHT22;8760;52.248;20.952;2022-10-20T01:17:47;4.00;99.90
17284;DHT22;8760;52.248;20.952;2022-10-20T01:20:43;4.00;99.90
17284;DHT22;8760;52.248;20.952;2022-10-20T01:26:48;3.90;99.90
17284;DHT22;8760;52.248;20.952;2022-10-20T01:29:26;3.90;99.90
17284;DHT22;8760;52.248;20.952;2022-10-20T01:32:06;4.00;99.90
17284;DHT22;8760;52.248;20.952;2022-10-20T01:34:39;4.00;99.90
17284;DHT22;8760;52.248;20.952;2022-10-20T01:37:14;3.90;99.90
17284;DHT22;8760;52.248;20.952;2022-10-20T01:39:47;3.80;99.90
17284;DHT22;8760;52.248;20.952;2022-10-20T01:42:20;3.70;99.90
17284;DHT22;8760;52.248;20.952;2022-10-20T01:44:50;3.80;99.90
17284;DHT22;8760;52.248;20.952;2022-10-20T01:47:18;3.80;99.90
17284;DHT22;8760;52.248;20.952;2022-10-20T01:49:47;3.70;99.90
17284;DHT22;8760;52.248;20.952;2022-10-20T01:52:14;3.70;99.90
17284;DHT22;8760;52.248;20.952;2022-10-20T01:54:41;3.70;99.90
17284;DHT22;8760;52.248;20.952;2022-10-20T02:00:06;3.80;99.90
17284;DHT22;8760;52.248;20.952;2022-10-20T02:02:44;3.80;99.90
17284;DHT22;8760;52.248;20.952;2022-10-20T02:05:25;3.90;99.90
17284;DHT22;8760;52.248;20.952;2022-10-20T02:08:02;3.90;99.90
17284;DHT22;8760;52.248;20.952;2022-10-20T02:10:33;3.90;99.90
17284;DHT22;8760;52.248;20.952;2022-10-20T02:13:05;3.90;99.90
17284;DHT22;8760;52.248;20.952;2022-10-20T02:15:36;3.90;99.90
17284;DHT22;8760;52.248;20.952;2022-10-20T02:18:06;3.80;99.90
17284;DHT22;8760;52.248;20.952;2022-10-20T02:20:34;3.80;99.90
17284;DHT22;8760;52.248;20.952;2022-10-20T02:23:03;3.80;99.90
17284;DHT22;8760;52.248;20.952;2022-10-20T02:25:32;3.70;99.90
17284;DHT22;8760;52.248;20.952;2022-10-20T02:28:00;3.80;99.90
17284;DHT22;8760;52.248;20.952;2022-10-20T02:30:28;3.70;99.90
17284;DHT22;8760;52.248;20.952;2022-10-20T02:32:57;3.70;99.90
17284;DHT22;8760;52.248;20.952;2022-10-20T02:35:29;3.70;99.90
17284;DHT22;8760;52.248;20.952;2022-10-20T02:37:58;3.70;99.90
17284;DHT22;8760;52.248;20.952;2022-10-20T02:40:26;3.70;99.90
17284;DHT22;8760;52.248;20.952;2022-10-20T02:42:53;3.70;99.90
17284;DHT22;8760;52.248;20.952;2022-10-20T02:45:20;3.60;99.90
17284;DHT22;8760;52.248;20.952;2022-10-20T02:47:47;3.60;99.90
17284;DHT22;8760;52.248;20.952;2022-10-20T02:50:15;3.60;99.90
17284;DHT22;8760;52.248;20.952;2022-10-20T02:52:42;3.50;99.90
17284;DHT22;8760;52.248;20.952;2022-10-20T02:55:09;3.50;99.90
17284;DHT22;8760;52.248;20.952;2022-10-20T02:57:36;3.50;99.90
17284;DHT22;8760;52.248;20.952;2022-10-20T03:00:04;3.50;99.90
17284;DHT22;8760;52.248;20.952;2022-10-20T03:02:31;3.50;99.90
17284;DHT22;8760;52.248;20.952;2022-10-20T03:04:58;3.40;99.90
17284;DHT22;8760;52.248;20.952;2022-10-20T03:07:26;3.40;99.90
17284;DHT22;8760;52.248;20.952;2022-10-20T03:09:53;3.40;99.90
17284;DHT22;8760;52.248;20.952;2022-10-20T03:12:20;3.40;99.90
17284;DHT22;8760;52.248;20.952;2022-10-20T03:14:47;3.40;99.90
17284;DHT22;8760;52.248;20.952;2022-10-20T03:17:14;3.30;99.90
17284;DHT22;8760;52.248;20.952;2022-10-20T03:19:41;3.30;99.90
17284;DHT22;8760;52.248;20.952;2022-10-20T03:22:08;3.30;99.90
17284;DHT22;8760;52.248;20.952;2022-10-20T03:24:36;3.30;99.90
17284;DHT22;8760;52.248;20.952;2022-10-20T03:27:03;3.30;99.90
17284;DHT22;8760;52.248;20.952;2022-10-20T03:29:30;3.30;99.90
17284;DHT22;8760;52.248;20.952;2022-10-20T03:31:57;3.30;99.90
17284;DHT22;8760;52.248;20.952;2022-10-20T03:34:24;3.30;99.90
17284;DHT22;8760;52.248;20.952;2022-10-20T03:36:51;3.30;99.90
17284;DHT22;8760;52.248;20.952;2022-10-20T03:39:18;3.30;99.90
17284;DHT22;8760;52.248;20.952;2022-10-20T03:41:46;3.30;99.90
17284;DHT22;8760;52.248;20.952;2022-10-20T03:44:13;3.20;99.90
17284;DHT22;8760;52.248;20.952;2022-10-20T03:46:40;3.30;99.90
17284;DHT22;8760;52.248;20.952;2022-10-20T03:49:07;3.30;99.90
17284;DHT22;8760;52.248;20.952;2022-10-20T03:51:34;3.30;99.90
17284;DHT22;8760;52.248;20.952;2022-10-20T03:54:01;3.30;99.90
17284;DHT22;8760;52.248;20.952;2022-10-20T03:56:28;3.30;99.90
17284;DHT22;8760;52.248;20.952;2022-10-20T03:58:56;3.30;99.90
17284;DHT22;8760;52.248;20.952;2022-10-20T04:01:27;3.20;99.90
17284;DHT22;8760;52.248;20.952;2022-10-20T04:03:55;3.20;99.90
17284;DHT22;8760;52.248;20.952;2022-10-20T04:06:22;3.20;99.90
17284;DHT22;8760;52.248;20.952;2022-10-20T04:08:49;3.20;99.90
17284;DHT22;8760;52.248;20.952;2022-10-20T04:11:16;3.20;99.90
17284;DHT22;8760;52.248;20.952;2022-10-20T04:13:43;3.20;99.90
17284;DHT22;8760;52.248;20.952;2022-10-20T04:16:11;3.10;99.90
17284;DHT22;8760;52.248;20.952;2022-10-20T04:18:38;3.10;99.90
17284;DHT22;8760;52.248;20.952;2022-10-20T04:21:06;3.10;99.90
17284;DHT22;8760;52.248;20.952;2022-10-20T04:23:33;3.10;99.90
17284;DHT22;8760;52.248;20.952;2022-10-20T04:26:07;3.10;99.90
17284;DHT22;8760;52.248;20.952;2022-10-20T04:28:34;3.10;99.90
17284;DHT22;8760;52.248;20.952;2022-10-20T04:31:01;3.10;99.90
17284;DHT22;8760;52.248;20.952;2022-10-20T04:33:29;3.10;99.90
17284;DHT22;8760;52.248;20.952;2022-10-20T04:35:57;3.10;99.90
17284;DHT22;8760;52.248;20.952;2022-10-20T04:38:24;3.10;99.90
17284;DHT22;8760;52.248;20.952;2022-10-20T04:40:53;3.10;99.90
17284;DHT22;8760;52.248;20.952;2022-10-20T04:43:20;3.10;99.90
17284;DHT22;8760;52.248;20.952;2022-10-20T04:45:47;3.10;99.90
17284;DHT22;8760;52.248;20.952;2022-10-20T04:48:14;3.00;99.90
17284;DHT22;8760;52.248;20.952;2022-10-20T04:50:43;3.00;99.90
17284;DHT22;8760;52.248;20.952;2022-10-20T04:53:10;3.00;99.90
17284;DHT22;8760;52.248;20.952;2022-10-20T04:55:37;3.00;99.90
17284;DHT22;8760;52.248;20.952;2022-10-20T04:58:04;3.00;99.90
17284;DHT22;8760;52.248;20.952;2022-10-20T05:00:30;3.00;99.90
17284;DHT22;8760;52.248;20.952;2022-10-20T05:02:57;3.00;99.90
17284;DHT22;8760;52.248;20.952;2022-10-20T05:05:24;3.00;99.90
17284;DHT22;8760;52.248;20.952;2022-10-20T05:07:53;3.00;99.90
17284;DHT22;8760;52.248;20.952;2022-10-20T05:10:20;3.00;99.90
17284;DHT22;8760;52.248;20.952;2022-10-20T05:12:46;2.90;99.90
17284;DHT22;8760;52.248;20.952;2022-10-20T05:15:13;2.90;99.90
17284;DHT22;8760;52.248;20.952;2022-10-20T05:17:40;2.90;99.90
17284;DHT22;8760;52.248;20.952;2022-10-20T05:20:08;2.90;99.90
17284;DHT22;8760;52.248;20.952;2022-10-20T05:22:35;2.90;99.90
17284;DHT22;8760;52.248;20.952;2022-10-20T05:25:04;2.90;99.90
17284;DHT22;8760;52.248;20.952;2022-10-20T05:27:31;3.00;99.90
17284;DHT22;8760;52.248;20.952;2022-10-20T05:29:58;3.00;99.90
17284;DHT22;8760;52.248;20.952;2022-10-20T05:32:27;3.00;99.90
17284;DHT22;8760;52.248;20.952;2022-10-20T05:34:54;3.00;99.90
17284;DHT22;8760;52.248;20.952;2022-10-20T05:37:21;3.00;99.90
17284;DHT22;8760;52.248;20.952;2022-10-20T05:39:48;3.10;99.90
17284;DHT22;8760;52.248;20.952;2022-10-20T05:42:16;3.10;99.90
17284;DHT22;8760;52.248;20.952;2022-10-20T05:44:43;3.10;99.90
17284;DHT22;8760;52.248;20.952;2022-10-20T05:47:10;3.10;99.90
17284;DHT22;8760;52.248;20.952;2022-10-20T05:49:37;3.10;99.90
17284;DHT22;8760;52.248;20.952;2022-10-20T05:52:05;3.10;99.90
17284;DHT22;8760;52.248;20.952;2022-10-20T05:54:32;3.10;99.90
17284;DHT22;8760;52.248;20.952;2022-10-20T05:56:59;3.10;99.90
17284;DHT22;8760;52.248;20.952;2022-10-20T05:59:27;3.20;99.90
17284;DHT22;8760;52.248;20.952;2022-10-20T06:01:54;3.10;99.90
17284;DHT22;8760;52.248;20.952;2022-10-20T06:04:22;3.10;99.90
17284;DHT22;8760;52.248;20.952;2022-10-20T06:06:50;3.20;99.90
17284;DHT22;8760;52.248;20.952;2022-10-20T06:09:17;3.20;99.90
17284;DHT22;8760;52.248;20.952;2022-10-20T06:11:45;3.30;99.90
17284;DHT22;8760;52.248;20.952;2022-10-20T06:14:12;3.30;99.90
17284;DHT22;8760;52.248;20.952;2022-10-20T06:16:41;3.30;99.90
17284;DHT22;8760;52.248;20.952;2022-10-20T06:19:08;3.30;99.90
17284;DHT22;8760;52.248;20.952;2022-10-20T06:21:36;3.50;99.90
17284;DHT22;8760;52.248;20.952;2022-10-20T06:24:04;3.50;99.90
17284;DHT22;8760;52.248;20.952;2022-10-20T06:26:33;3.60;99.90
17284;DHT22;8760;52.248;20.952;2022-10-20T06:29:01;3.60;99.90
17284;DHT22;8760;52.248;20.952;2022-10-20T06:31:30;3.60;99.90
17284;DHT22;8760;52.248;20.952;2022-10-20T06:34:00;3.70;99.90
17284;DHT22;8760;52.248;20.952;2022-10-20T06:36:27;3.70;99.90
17284;DHT22;8760;52.248;20.952;2022-10-20T06:38:55;3.80;99.90
17284;DHT22;8760;52.248;20.952;2022-10-20T06:41:23;3.90;99.90
17284;DHT22;8760;52.248;20.952;2022-10-20T06:43:51;3.90;99.90
17284;DHT22;8760;52.248;20.952;2022-10-20T06:46:23;4.00;99.90
17284;DHT22;8760;52.248;20.952;2022-10-20T06:48:50;4.00;99.90
17284;DHT22;8760;52.248;20.952;2022-10-20T06:51:19;4.10;99.90
17284;DHT22;8760;52.248;20.952;2022-10-20T06:53:47;4.20;99.90
17284;DHT22;8760;52.248;20.952;2022-10-20T06:56:16;4.20;99.90
17284;DHT22;8760;52.248;20.952;2022-10-20T06:58:45;4.20;99.90
17284;DHT22;8760;52.248;20.952;2022-10-20T07:01:14;4.40;99.90
17284;DHT22;8760;52.248;20.952;2022-10-20T07:03:42;4.40;99.90
17284;DHT22;8760;52.248;20.952;2022-10-20T07:06:12;4.60;99.90
17284;DHT22;8760;52.248;20.952;2022-10-20T07:08:41;4.70;99.90
17284;DHT22;8760;52.248;20.952;2022-10-20T07:11:14;4.70;99.90
17284;DHT22;8760;52.248;20.952;2022-10-20T07:13:42;4.70;99.90
17284;DHT22;8760;52.248;20.952;2022-10-20T07:16:11;4.80;99.90
17284;DHT22;8760;52.248;20.952;2022-10-20T07:18:39;4.90;99.90
17284;DHT22;8760;52.248;20.952;2022-10-20T07:21:08;4.90;99.90
17284;DHT22;8760;52.248;20.952;2022-10-20T07:23:35;5.00;99.90
17284;DHT22;8760;52.248;20.952;2022-10-20T07:26:06;5.10;81.60
17284;DHT22;8760;52.248;20.952;2022-10-20T07:28:34;5.10;25.50
17284;DHT22;8760;52.248;20.952;2022-10-20T07:31:02;5.20;2.70
17284;DHT22;8760;52.248;20.952;2022-10-20T07:33:29;5.30;1.00
17284;DHT22;8760;52.248;20.952;2022-10-20T07:35:56;5.40;1.00
17284;DHT22;8760;52.248;20.952;2022-10-20T07:38:23;5.40;1.00
17284;DHT22;8760;52.248;20.952;2022-10-20T07:40:50;5.40;1.00
17284;DHT22;8760;52.248;20.952;2022-10-20T07:43:19;5.50;1.00
17284;DHT22;8760;52.248;20.952;2022-10-20T07:45:45;5.60;1.00
17284;DHT22;8760;52.248;20.952;2022-10-20T07:48:14;5.70;1.00
17284;DHT22;8760;52.248;20.952;2022-10-20T07:50:44;5.80;1.00
17284;DHT22;8760;52.248;20.952;2022-10-20T07:53:11;5.90;1.00
17284;DHT22;8760;52.248;20.952;2022-10-20T07:55:38;6.20;1.00
17284;DHT22;8760;52.248;20.952;2022-10-20T07:58:05;6.80;1.00
17284;DHT22;8760;52.248;20.952;2022-10-20T08:00:33;7.80;99.90
17284;DHT22;8760;52.248;20.952;2022-10-20T08:03:00;8.80;99.90
17284;DHT22;8760;52.248;20.952;2022-10-20T08:05:27;9.80;1.00
17284;DHT22;8760;52.248;20.952;2022-10-20T08:07:54;10.70;3.10
17284;DHT22;8760;52.248;20.952;2022-10-20T08:10:21;11.50;99.90
17284;DHT22;8760;52.248;20.952;2022-10-20T08:12:48;12.00;33.80
17284;DHT22;8760;52.248;20.952;2022-10-20T08:15:15;12.40;1.00
17284;DHT22;8760;52.248;20.952;2022-10-20T08:17:43;12.90;1.00
17284;DHT22;8760;52.248;20.952;2022-10-20T08:20:11;12.90;1.00
17284;DHT22;8760;52.248;20.952;2022-10-20T08:22:37;12.70;1.00
17284;DHT22;8760;52.248;20.952;2022-10-20T08:25:05;12.40;1.00
17284;DHT22;8760;52.248;20.952;2022-10-20T08:27:32;12.30;1.00
17284;DHT22;8760;52.248;20.952;2022-10-20T08:29:59;12.00;1.00
17284;DHT22;8760;52.248;20.952;2022-10-20T08:32:26;12.00;1.00
17284;DHT22;8760;52.248;20.952;2022-10-20T08:34:54;12.10;1.00
17284;DHT22;8760;52.248;20.952;2022-10-20T08:37:21;12.00;1.00
17284;DHT22;8760;52.248;20.952;2022-10-20T08:39:48;11.80;1.00
17284;DHT22;8760;52.248;20.952;2022-10-20T08:42:16;11.30;1.00
17284;DHT22;8760;52.248;20.952;2022-10-20T08:44:45;11.20;1.90
17284;DHT22;8760;52.248;20.952;2022-10-20T08:47:22;10.90;52.90
17284;DHT22;8760;52.248;20.952;2022-10-20T08:49:50;10.60;99.90
17284;DHT22;8760;52.248;20.952;2022-10-20T08:52:20;10.40;1.00
17284;DHT22;8760;52.248;20.952;2022-10-20T08:54:51;10.40;1.00
17284;DHT22;8760;52.248;20.952;2022-10-20T08:57:21;10.80;1.00
17284;DHT22;8760;52.248;20.952;2022-10-20T08:59:51;10.90;1.00
17284;DHT22;8760;52.248;20.952;2022-10-20T09:02:18;10.60;99.90
17284;DHT22;8760;52.248;20.952;2022-10-20T09:04:48;10.20;1.00
17284;DHT22;8760;52.248;20.952;2022-10-20T09:07:22;10.10;34.50
17284;DHT22;8760;52.248;20.952;2022-10-20T09:09:51;10.00;99.90
17284;DHT22;8760;52.248;20.952;2022-10-20T09:12:19;9.90;99.90
17284;DHT22;8760;52.248;20.952;2022-10-20T09:14:47;9.80;99.90
17284;DHT22;8760;52.248;20.952;2022-10-20T09:17:15;9.90;99.90
17284;DHT22;8760;52.248;20.952;2022-10-20T09:19:45;9.80;99.90
17284;DHT22;8760;52.248;20.952;2022-10-20T09:22:15;9.90;1.00
17284;DHT22;8760;52.248;20.952;2022-10-20T09:24:44;10.20;99.90
17284;DHT22;8760;52.248;20.952;2022-10-20T09:27:23;11.00;99.90
17284;DHT22;8760;52.248;20.952;2022-10-20T09:29:50;12.50;99.90
17284;DHT22;8760;52.248;20.952;2022-10-20T09:32:19;13.80;1.00
17284;DHT22;8760;52.248;20.952;2022-10-20T09:34:47;15.00;1.00
17284;DHT22;8760;52.248;20.952;2022-10-20T09:37:16;15.80;99.90
17284;DHT22;8760;52.248;20.952;2022-10-20T09:39:51;16.60;99.90
17284;DHT22;8760;52.248;20.952;2022-10-20T09:42:21;17.20;99.90
17284;DHT22;8760;52.248;20.952;2022-10-20T09:44:52;17.40;99.90
17284;DHT22;8760;52.248;20.952;2022-10-20T09:47:21;18.00;99.90
17284;DHT22;8760;52.248;20.952;2022-10-20T09:49:52;18.40;99.90
17284;DHT22;8760;52.248;20.952;2022-10-20T09:52:23;18.60;99.90
17284;DHT22;8760;52.248;20.952;2022-10-20T09:54:58;18.40;99.90
17284;DHT22;8760;52.248;20.952;2022-10-20T09:57:26;18.30;99.90
17284;DHT22;8760;52.248;20.952;2022-10-20T09:59:55;18.70;99.90
17284;DHT22;8760;52.248;20.952;2022-10-20T10:02:29;18.70;99.90
17284;DHT22;8760;52.248;20.952;2022-10-20T10:05:13;18.80;99.90
17284;DHT22;8760;52.248;20.952;2022-10-20T10:07:40;18.90;99.90
17284;DHT22;8760;52.248;20.952;2022-10-20T10:10:26;18.50;99.90
17284;DHT22;8760;52.248;20.952;2022-10-20T10:12:55;19.10;99.90
17284;DHT22;8760;52.248;20.952;2022-10-20T10:15:27;19.30;99.90
17284;DHT22;8760;52.248;20.952;2022-10-20T10:17:56;19.60;97.10
17284;DHT22;8760;52.248;20.952;2022-10-20T10:20:34;19.90;94.20
17284;DHT22;8760;52.248;20.952;2022-10-20T10:23:22;19.60;90.70
17284;DHT22;8760;52.248;20.952;2022-10-20T10:25:52;19.40;90.70
17284;DHT22;8760;52.248;20.952;2022-10-20T10:28:32;20.00;88.10
17284;DHT22;8760;52.248;20.952;2022-10-20T10:31:17;20.70;72.60
17284;DHT22;8760;52.248;20.952;2022-10-20T10:33:45;20.20;63.80
17284;DHT22;8760;52.248;20.952;2022-10-20T10:36:17;20.00;62.50
17284;DHT22;8760;52.248;20.952;2022-10-20T10:38:46;20.10;57.30
17284;DHT22;8760;52.248;20.952;2022-10-20T10:41:20;20.00;57.10
17284;DHT22;8760;52.248;20.952;2022-10-20T10:43:57;19.60;50.70
17284;DHT22;8760;52.248;20.952;2022-10-20T10:46:26;19.30;50.30
17284;DHT22;8760;52.248;20.952;2022-10-20T10:49:22;18.50;50.10
17284;DHT22;8760;52.248;20.952;2022-10-20T10:52:00;17.80;59.50
17284;DHT22;8760;52.248;20.952;2022-10-20T10:54:42;17.90;59.70
17284;DHT22;8760;52.248;20.952;2022-10-20T10:57:23;17.80;59.20
17284;DHT22;8760;52.248;20.952;2022-10-20T10:59:52;17.80;50.90
17284;DHT22;8760;52.248;20.952;2022-10-20T11:02:44;17.60;53.00
17284;DHT22;8760;52.248;20.952;2022-10-20T11:05:22;17.60;57.20
17284;DHT22;8760;52.248;20.952;2022-10-20T11:07:57;17.30;61.80
17284;DHT22;8760;52.248;20.952;2022-10-20T11:10:31;17.00;68.90
17284;DHT22;8760;52.248;20.952;2022-10-20T11:13:14;16.60;58.90
17284;DHT22;8760;52.248;20.952;2022-10-20T11:15:54;16.20;57.20
17284;DHT22;8760;52.248;20.952;2022-10-20T11:18:41;15.90;61.60
17284;DHT22;8760;52.248;20.952;2022-10-20T11:21:19;15.70;71.50
17284;DHT22;8760;52.248;20.952;2022-10-20T11:24:14;15.20;79.60
17284;DHT22;8760;52.248;20.952;2022-10-20T11:26:45;14.60;85.30
17284;DHT22;8760;52.248;20.952;2022-10-20T11:29:23;14.20;92.60
17284;DHT22;8760;52.248;20.952;2022-10-20T11:31:59;13.80;99.90
17284;DHT22;8760;52.248;20.952;2022-10-20T11:34:32;13.60;99.90
17284;DHT22;8760;52.248;20.952;2022-10-20T11:37:04;13.60;99.90
17284;DHT22;8760;52.248;20.952;2022-10-20T11:39:36;13.70;99.90
17284;DHT22;8760;52.248;20.952;2022-10-20T11:42:17;13.50;99.90
17284;DHT22;8760;52.248;20.952;2022-10-20T11:44:47;13.40;99.90
17284;DHT22;8760;52.248;20.952;2022-10-20T11:47:17;13.10;99.90
17284;DHT22;8760;52.248;20.952;2022-10-20T11:49:46;12.90;99.90
17284;DHT22;8760;52.248;20.952;2022-10-20T11:52:36;12.80;99.90
17284;DHT22;8760;52.248;20.952;2022-10-20T11:55:47;12.70;99.90
17284;DHT22;8760;52.248;20.952;2022-10-20T11:58:23;12.50;99.90
17284;DHT22;8760;52.248;20.952;2022-10-20T12:01:03;12.40;99.90
17284;DHT22;8760;52.248;20.952;2022-10-20T12:06:52;12.30;99.90
17284;DHT22;8760;52.248;20.952;2022-10-20T12:09:50;12.10;99.90
17284;DHT22;8760;52.248;20.952;2022-10-20T12:12:26;12.10;99.90
17284;DHT22;8760;52.248;20.952;2022-10-20T12:14:56;11.90;99.90
17284;DHT22;8760;52.248;20.952;2022-10-20T12:17:36;11.90;99.90
17284;DHT22;8760;52.248;20.952;2022-10-20T12:23:53;11.80;99.90
17284;DHT22;8760;52.248;20.952;2022-10-20T12:29:52;11.60;99.90
17284;DHT22;8760;52.248;20.952;2022-10-20T12:38:16;11.50;99.90
17284;DHT22;8760;52.248;20.952;2022-10-20T12:40:48;11.40;99.90
17284;DHT22;8760;52.248;20.952;2022-10-20T12:43:34;11.40;99.90
17284;DHT22;8760;52.248;20.952;2022-10-20T12:46:10;11.30;99.90
17284;DHT22;8760;52.248;20.952;2022-10-20T12:48:42;11.30;99.90
17284;DHT22;8760;52.248;20.952;2022-10-20T12:51:32;11.20;99.90
17284;DHT22;8760;52.248;20.952;2022-10-20T12:54:05;11.30;99.90
17284;DHT22;8760;52.248;20.952;2022-10-20T12:56:37;11.30;99.90
17284;DHT22;8760;52.248;20.952;2022-10-20T12:59:33;11.30;99.90
17284;DHT22;8760;52.248;20.952;2022-10-20T13:05:44;11.30;99.90
17284;DHT22;8760;52.248;20.952;2022-10-20T13:08:30;11.30;99.90
17284;DHT22;8760;52.248;20.952;2022-10-20T13:14:06;11.10;99.90
17284;DHT22;8760;52.248;20.952;2022-10-20T13:16:35;11.10;99.90
17284;DHT22;8760;52.248;20.952;2022-10-20T13:19:05;11.10;99.90
17284;DHT22;8760;52.248;20.952;2022-10-20T13:21:33;11.10;99.90
17284;DHT22;8760;52.248;20.952;2022-10-20T13:24:10;11.10;99.90
17284;DHT22;8760;52.248;20.952;2022-10-20T13:26:45;11.10;99.90
17284;DHT22;8760;52.248;20.952;2022-10-20T13:29:19;11.10;99.90
17284;DHT22;8760;52.248;20.952;2022-10-20T13:31:54;11.10;99.90
17284;DHT22;8760;52.248;20.952;2022-10-20T13:34:25;11.10;99.90
17284;DHT22;8760;52.248;20.952;2022-10-20T13:39:54;11.20;99.90
17284;DHT22;8760;52.248;20.952;2022-10-20T13:42:38;11.10;99.90
17284;DHT22;8760;52.248;20.952;2022-10-20T13:45:19;11.10;99.90
17284;DHT22;8760;52.248;20.952;2022-10-20T13:47:49;11.00;99.90
17284;DHT22;8760;52.248;20.952;2022-10-20T13:50:20;10.90;99.90
17284;DHT22;8760;52.248;20.952;2022-10-20T13:52:50;10.90;99.90
17284;DHT22;8760;52.248;20.952;2022-10-20T13:55:20;10.90;99.90
17284;DHT22;8760;52.248;20.952;2022-10-20T13:57:52;10.90;99.90
17284;DHT22;8760;52.248;20.952;2022-10-20T14:00:25;10.90;99.90
17284;DHT22;8760;52.248;20.952;2022-10-20T14:02:58;10.90;99.90
17284;DHT22;8760;52.248;20.952;2022-10-20T14:05:26;10.80;99.90
17284;DHT22;8760;52.248;20.952;2022-10-20T14:07:54;10.80;99.90
17284;DHT22;8760;52.248;20.952;2022-10-20T14:10:27;10.80;99.90
17284;DHT22;8760;52.248;20.952;2022-10-20T14:12:55;10.90;99.90
17284;DHT22;8760;52.248;20.952;2022-10-20T14:15:28;10.80;99.90
17284;DHT22;8760;52.248;20.952;2022-10-20T14:18:00;10.80;99.90
17284;DHT22;8760;52.248;20.952;2022-10-20T14:20:29;10.80;99.90
17284;DHT22;8760;52.248;20.952;2022-10-20T14:22:58;10.70;99.90
17284;DHT22;8760;52.248;20.952;2022-10-20T14:25:26;10.70;99.90
17284;DHT22;8760;52.248;20.952;2022-10-20T14:27:55;10.60;99.90
17284;DHT22;8760;52.248;20.952;2022-10-20T14:30:22;10.70;1.00
17284;DHT22;8760;52.248;20.952;2022-10-20T14:32:52;10.60;1.00
17284;DHT22;8760;52.248;20.952;2022-10-20T14:35:28;10.60;1.00
17284;DHT22;8760;52.248;20.952;2022-10-20T14:37:59;10.60;1.00
17284;DHT22;8760;52.248;20.952;2022-10-20T14:40:29;10.60;1.00
17284;DHT22;8760;52.248;20.952;2022-10-20T14:43:00;10.50;1.00
17284;DHT22;8760;52.248;20.952;2022-10-20T14:45:28;10.50;1.00
17284;DHT22;8760;52.248;20.952;2022-10-20T14:47:58;10.40;1.00
17284;DHT22;8760;52.248;20.952;2022-10-20T14:50:31;10.30;1.00
17284;DHT22;8760;52.248;20.952;2022-10-20T14:53:16;10.30;1.00
17284;DHT22;8760;52.248;20.952;2022-10-20T14:55:43;10.30;1.00
17284;DHT22;8760;52.248;20.952;2022-10-20T14:58:32;10.20;1.00
17284;DHT22;8760;52.248;20.952;2022-10-20T15:01:14;10.20;1.00
17284;DHT22;8760;52.248;20.952;2022-10-20T15:03:42;10.20;1.00
17284;DHT22;8760;52.248;20.952;2022-10-20T15:06:11;10.10;1.00
17284;DHT22;8760;52.248;20.952;2022-10-20T15:08:39;10.10;1.00
17284;DHT22;8760;52.248;20.952;2022-10-20T15:11:19;10.00;99.90
17284;DHT22;8760;52.248;20.952;2022-10-20T15:13:49;10.00;99.90
17284;DHT22;8760;52.248;20.952;2022-10-20T15:16:31;10.00;99.90
17284;DHT22;8760;52.248;20.952;2022-10-20T15:19:33;9.90;99.90
17284;DHT22;8760;52.248;20.952;2022-10-20T15:22:08;9.90;99.90
17284;DHT22;8760;52.248;20.952;2022-10-20T15:24:35;9.80;99.90
17284;DHT22;8760;52.248;20.952;2022-10-20T15:27:02;9.80;1.00
17284;DHT22;8760;52.248;20.952;2022-10-20T15:29:30;9.80;1.00
17284;DHT22;8760;52.248;20.952;2022-10-20T15:31:58;9.80;99.90
17284;DHT22;8760;52.248;20.952;2022-10-20T15:34:25;9.70;1.00
17284;DHT22;8760;52.248;20.952;2022-10-20T15:36:53;9.70;1.00
17284;DHT22;8760;52.248;20.952;2022-10-20T15:39:21;9.70;99.90
17284;DHT22;8760;52.248;20.952;2022-10-20T15:41:48;9.70;99.90
17284;DHT22;8760;52.248;20.952;2022-10-20T15:44:16;9.70;1.00
17284;DHT22;8760;52.248;20.952;2022-10-20T15:46:44;9.70;1.00
17284;DHT22;8760;52.248;20.952;2022-10-20T15:49:12;9.70;1.00
17284;DHT22;8760;52.248;20.952;2022-10-20T15:51:40;9.70;99.90
17284;DHT22;8760;52.248;20.952;2022-10-20T15:54:10;9.60;1.00
17284;DHT22;8760;52.248;20.952;2022-10-20T15:56:39;9.60;99.90
17284;DHT22;8760;52.248;20.952;2022-10-20T15:59:06;9.60;99.90
17284;DHT22;8760;52.248;20.952;2022-10-20T16:01:33;9.50;99.90
17284;DHT22;8760;52.248;20.952;2022-10-20T16:04:01;9.50;99.90
17284;DHT22;8760;52.248;20.952;2022-10-20T16:06:28;9.40;1.00
17284;DHT22;8760;52.248;20.952;2022-10-20T16:08:55;9.50;99.90
17284;DHT22;8760;52.248;20.952;2022-10-20T16:11:23;9.40;99.90
17284;DHT22;8760;52.248;20.952;2022-10-20T16:13:50;9.40;1.00
17284;DHT22;8760;52.248;20.952;2022-10-20T16:16:18;9.40;1.00
17284;DHT22;8760;52.248;20.952;2022-10-20T16:18:45;9.40;1.00
17284;DHT22;8760;52.248;20.952;2022-10-20T16:21:12;9.40;1.00
17284;DHT22;8760;52.248;20.952;2022-10-20T16:23:39;9.30;99.90
17284;DHT22;8760;52.248;20.952;2022-10-20T16:26:08;9.30;99.90
17284;DHT22;8760;52.248;20.952;2022-10-20T16:28:37;9.30;99.90
17284;DHT22;8760;52.248;20.952;2022-10-20T16:31:05;9.20;99.90
17284;DHT22;8760;52.248;20.952;2022-10-20T16:33:33;9.30;1.00
17284;DHT22;8760;52.248;20.952;2022-10-20T16:36:02;9.20;99.90